EST,Max TemperatureF,Mean TemperatureF,Min TemperatureF,Max Dew PointF,MeanDew PointF,Min DewpointF,Max Humidity, Mean Humidity, Min Humidity, Max Sea Level PressureIn, Mean Sea Level PressureIn, Min Sea Level PressureIn, Max VisibilityMiles, Mean VisibilityMiles, Min VisibilityMiles, Max Wind SpeedMPH, Mean Wind SpeedMPH, Max Gust SpeedMPH,PrecipitationIn, CloudCover, Events, WindDirDegrees
2012-2-1,53,44,35,54,47,34,100,95,81,30.30,30.21,30.12,10,6,0,4,0,,0.98,7,,10
2012-2-2,62,50,39,57,45,34,100,76,34,30.32,30.20,30.09,10,6,0,13,2,22,0.06,4,,25
2012-2-3,62,47,32,41,35,32,100,71,32,30.41,30.36,30.32,10,10,7,9,1,16,0.00,0,,218
2012-2-4,51,48,44,52,47,41,100,97,87,30.32,30.21,30.09,10,7,2,5,0,,0.74,8,Rain,62
2012-2-5,64,55,44,59,50,43,100,85,55,30.15,30.07,30.03,10,6,0,16,3,21,0.01,6,,295
2012-2-6,59,47,35,45,41,36,100,84,55,30.20,30.16,30.11,10,9,1,13,2,16,0.00,5,,247
2012-2-7,59,44,30,45,35,28,100,81,36,30.21,30.16,30.10,10,7,0,9,2,,0.00,2,Fog,254
2012-2-8,53,43,33,37,35,32,100,74,50,30.22,30.18,30.13,10,10,10,10,2,18,0.00,7,,20
2012-2-9,53,42,32,32,31,30,93,67,44,30.27,30.21,30.15,10,10,10,13,5,18,0.00,2,,308
2012-2-10,50,40,30,37,32,30,100,82,50,30.18,30.08,29.96,10,8,5,10,1,,0.00,2,,257
2012-2-11,42,32,23,36,25,10,93,73,54,30.26,30.04,29.87,10,8,1,15,6,25,0.00,8,Rain-Snow,311
2012-2-12,37,27,17,16,10,7,68,53,36,30.33,30.28,30.26,10,10,10,16,7,24,0.00,1,,59
2012-2-13,48,32,17,45,20,14,93,66,27,30.27,30.17,29.93,10,10,4,9,1,,0.00,3,Rain,258
2012-2-14,41,37,33,41,36,28,100,96,61,30.10,30.05,30.00,10,6,1,7,1,,0.15,8,Rain-Snow,260
2012-2-15,69,50,32,46,36,32,100,74,26,30.23,30.17,30.10,10,6,0,9,1,,0.01,4,Fog,224
2012-2-16,59,50,42,55,47,39,100,94,63,30.21,30.12,30.05,10,7,2,12,1,,0.23,6,,72
2012-2-17,64,48,32,48,39,32,100,79,30,30.18,30.11,30.06,10,6,0,10,2,,0.00,3,Fog,281
2012-2-18,64,48,33,52,43,32,100,77,48,30.11,30.03,29.93,10,10,7,12,1,,0.02,3,Rain,261
2012-2-19,51,44,37,52,45,32,100,94,76,30.00,29.80,29.67,10,7,2,13,4,21,0.42,8,Rain,330
2012-2-20,59,46,32,37,34,30,100,75,39,30.23,30.15,30.00,10,9,0,13,5,16,0.00,2,Fog,290
2012-2-21,57,44,30,43,37,30,100,78,55,30.23,30.13,30.00,10,10,10,14,3,21,0.00,4,,240
2012-2-22,62,47,32,52,41,32,100,83,55,30.04,29.89,29.65,10,7,0,18,3,32,0.00,6,Fog-Rain,233
2012-2-23,77,62,46,64,53,46,100,80,41,29.71,29.65,29.57,10,6,0,20,4,29,0.01,5,Fog,227
2012-2-24,69,56,42,63,49,27,88,64,35,30.03,29.75,29.62,10,10,7,21,11,34,0.09,5,Rain,255
2012-2-25,51,40,30,30,24,14,87,56,27,30.31,30.19,30.07,10,10,10,21,6,33,0.00,2,,292
2012-2-26,59,41,23,30,25,19,93,60,25,30.40,30.35,30.29,10,10,10,13,2,18,0.00,0,,239
2012-2-27,66,50,33,50,41,30,93,72,42,30.42,30.37,30.30,10,10,10,9,1,,0.00,5,,225
2012-2-28,71,52,32,50,41,32,100,70,35,30.40,30.33,30.25,10,10,4,13,2,17,0.00,2,,212
2012-2-29,68,62,57,63,59,54,100,91,78,30.23,30.07,29.91,10,9,5,14,4,23,0.13,8,Rain,257